Megan T Miller — WCW9003 — position and weather

sailwx.info

Track history (hours):
 
Tides and Currents Weather Stations Pressure Air Temp Water Temp Dewpoint Dewpoint Depression Visibility Wind Speed Wind Dir Waves Ship Positions

Megan T Miller

Owner: MILLER MARINE SERVICES INC, PORT JEFFERSON, NY. More information available from US FCC via Universal Licensing System and Coast Guard Vessel Documentation Center.

Last reported at 2015-May-16 09:14 UTC. Time now 2015-May-28 10:09 UTC.
Position N 41°15' W 072°55'.
Warning: this ship's position is 12 days out of date.

Length 18 m.

MMSI: 338104509.

Date/timePositionNaut miles runAvg speedWind from/ knotsBaromVisibWave heightAir tempDewpointWater temp
2015-May-16 09:14N 41°15' W 072°55'6 9.4
2015-May-16 08:33N 41°10' W 072°50'10 9.6
2015-May-16 07:33N 41°03' W 072°41'3 2.9
2015-May-16 06:28N 41°01' W 072°38'1 0.8
2015-May-16 05:33N 41°00' W 072°38'0 0.2
2015-May-16 04:33N 40°60' W 072°39'7 6.9
2015-May-16 03:33N 41°05' W 072°45'1110.2
2015-May-16 02:31N 41°13' W 072°54'5 0.8
2015-May-15 19:27N 41°18' W 072°54'  
2015-May-08 05:33N 41°18' W 072°54'8 7.9
2015-May-08 04:33N 41°11' W 072°57'9 9.5
2015-May-08 03:33N 41°02' W 073°03'5 5.0
2015-May-08 02:33N 40°58' W 073°05'7 7.2
2015-May-08 01:33N 40°59' W 073°14'1110.9
2015-May-08 00:33N 40°58' W 073°29'9 9.5
2015-May-07 23:33N 40°54' W 073°40'9 9.3
2015-May-07 22:33N 40°48' W 073°50'7 7.5
2015-May-07 21:33N 40°45' W 073°58'7 7.1
2015-May-07 20:33N 40°38' W 074°03'9 7.6
2015-May-07 19:26N 40°31' W 073°58'40 9.3
2015-May-07 15:08N 39°51' W 074°00'610.2
2015-May-07 14:33N 39°45' W 074°02'1010.0
2015-May-07 13:33N 39°36' W 074°08'1410.1
2015-May-07 12:07N 39°24' W 074°17'18 9.6
2015-May-07 10:13N 39°10' W 074°32'7 9.6
2015-May-07 09:30N 39°04' W 074°38'12 9.5
2015-May-07 08:17N 38°54' W 074°46'10 9.7
2015-May-07 07:17N 38°45' W 074°50'7 9.4
2015-May-07 06:33N 38°39' W 074°53'10 9.3
2015-May-07 05:30N 38°30' W 074°58'9 9.5
2015-May-07 04:31N 38°21' W 075°01'30 9.5
2015-May-07 01:24N 37°54' W 075°17'  
Track history (hours):
 
Tides and Currents Weather Stations Pressure Air Temp Water Temp Dewpoint Dewpoint Depression Visibility Wind Speed Wind Dir Waves Ship Positions

Megan T Miller

Owner: MILLER MARINE SERVICES INC, PORT JEFFERSON, NY. More information available from US FCC via Universal Licensing System and Coast Guard Vessel Documentation Center.

Last reported at 2015-May-16 09:14 UTC. Time now 2015-May-28 10:09 UTC.
Position N 41°15' W 072°55'.
Warning: this ship's position is 12 days out of date.

Length 18 m.

MMSI: 338104509.

Date/timePositionNaut miles runAvg speedWind from/ knotsBaromVisibWave heightAir tempDewpointWater temp
2015-May-16 09:14N 41°15' W 072°55'6 9.4
2015-May-16 08:33N 41°10' W 072°50'10 9.6
2015-May-16 07:33N 41°03' W 072°41'3 2.9
2015-May-16 06:28N 41°01' W 072°38'1 0.8
2015-May-16 05:33N 41°00' W 072°38'0 0.2
2015-May-16 04:33N 40°60' W 072°39'7 6.9
2015-May-16 03:33N 41°05' W 072°45'1110.2
2015-May-16 02:31N 41°13' W 072°54'5 0.8
2015-May-15 19:27N 41°18' W 072°54'  
2015-May-08 05:33N 41°18' W 072°54'8 7.9
2015-May-08 04:33N 41°11' W 072°57'9 9.5
2015-May-08 03:33N 41°02' W 073°03'5 5.0
2015-May-08 02:33N 40°58' W 073°05'7 7.2
2015-May-08 01:33N 40°59' W 073°14'1110.9
2015-May-08 00:33N 40°58' W 073°29'9 9.5
2015-May-07 23:33N 40°54' W 073°40'9 9.3
2015-May-07 22:33N 40°48' W 073°50'7 7.5
2015-May-07 21:33N 40°45' W 073°58'7 7.1
2015-May-07 20:33N 40°38' W 074°03'9 7.6
2015-May-07 19:26N 40°31' W 073°58'40 9.3
2015-May-07 15:08N 39°51' W 074°00'610.2
2015-May-07 14:33N 39°45' W 074°02'1010.0
2015-May-07 13:33N 39°36' W 074°08'1410.1
2015-May-07 12:07N 39°24' W 074°17'18 9.6
2015-May-07 10:13N 39°10' W 074°32'7 9.6
2015-May-07 09:30N 39°04' W 074°38'12 9.5
2015-May-07 08:17N 38°54' W 074°46'10 9.7
2015-May-07 07:17N 38°45' W 074°50'7 9.4
2015-May-07 06:33N 38°39' W 074°53'10 9.3
2015-May-07 05:30N 38°30' W 074°58'9 9.5
2015-May-07 04:31N 38°21' W 075°01'30 9.5
2015-May-07 01:24N 37°54' W 075°17'  

Dump ship's entire track history